createdAt,value
2022-10-18T00:02:00.400Z,19.40
2022-10-18T00:04:30.144Z,11.13
2022-10-18T00:07:02.337Z,14.57
2022-10-18T00:09:31.899Z,15.98
2022-10-18T00:12:01.590Z,23.65
2022-10-18T00:14:31.275Z,15.38
2022-10-18T00:17:00.808Z,14.70
2022-10-18T00:19:30.359Z,12.02
2022-10-18T00:22:02.696Z,19.10
2022-10-18T00:24:32.316Z,21.08
2022-10-18T00:27:01.960Z,16.50
2022-10-18T00:29:31.645Z,21.92
2022-10-18T00:32:01.196Z,20.65
2022-10-18T00:34:30.838Z,15.68
2022-10-18T00:37:03.145Z,12.20
2022-10-18T00:39:32.860Z,12.30
2022-10-18T00:42:03.426Z,19.95
2022-10-18T00:45:03.197Z,11.23
2022-10-18T00:47:32.951Z,13.50
2022-10-18T00:50:04.981Z,14.70
2022-10-18T00:52:39.736Z,11.30
2022-10-18T00:55:10.212Z,16.85
2022-10-18T00:57:40.483Z,18.42
2022-10-18T01:00:11.909Z,15.68
2022-10-18T01:02:44.336Z,20.13
2022-10-18T01:05:15.279Z,11.25
2022-10-18T01:08:17.898Z,16.63
2022-10-18T01:10:54.520Z,18.35
2022-10-18T01:13:32.684Z,17.40
2022-10-18T01:16:06.108Z,16.02
2022-10-18T01:18:40.466Z,16.50
2022-10-18T01:21:38.839Z,17.27
2022-10-18T01:24:40.688Z,15.60
2022-10-18T01:27:27.277Z,17.45
2022-10-18T01:30:14.347Z,14.75
2022-10-18T01:32:50.586Z,16.40
2022-10-18T01:35:23.000Z,12.52
2022-10-18T01:37:53.781Z,22.23
2022-10-18T01:40:25.224Z,17.53
2022-10-18T01:42:55.114Z,17.73
2022-10-18T01:45:25.985Z,17.90
2022-10-18T01:47:58.621Z,20.38
2022-10-18T01:50:33.144Z,15.25
2022-10-18T01:53:03.300Z,17.90
2022-10-18T01:55:38.975Z,16.80
2022-10-18T01:58:13.311Z,15.55
2022-10-18T02:00:44.776Z,14.98
2022-10-18T02:03:21.662Z,12.48
2022-10-18T02:05:57.307Z,14.57
2022-10-18T02:08:30.868Z,13.63
2022-10-18T02:11:04.185Z,15.23
2022-10-18T02:13:38.098Z,14.60
2022-10-18T02:16:12.759Z,13.00
2022-10-18T02:18:47.426Z,17.30
2022-10-18T02:21:19.772Z,22.58
2022-10-18T02:23:49.915Z,14.35
2022-10-18T02:26:19.596Z,12.20
2022-10-18T02:28:49.317Z,15.75
2022-10-18T02:31:22.960Z,13.38
2022-10-18T02:33:56.990Z,23.15
2022-10-18T02:36:30.720Z,18.45
2022-10-18T02:39:05.587Z,17.23
2022-10-18T02:41:35.704Z,18.95
2022-10-18T02:44:05.214Z,10.60
2022-10-18T02:46:34.837Z,12.95
2022-10-18T02:49:06.971Z,16.80
2022-10-18T02:51:37.379Z,18.17
2022-10-18T02:54:08.378Z,15.20
2022-10-18T02:56:38.433Z,14.68
2022-10-18T02:59:08.252Z,17.38
2022-10-18T03:01:37.868Z,16.00
2022-10-18T03:04:10.079Z,20.23
2022-10-18T03:06:39.696Z,15.68
2022-10-18T03:09:09.593Z,18.42
2022-10-18T03:11:39.148Z,15.23
2022-10-18T03:14:08.683Z,16.05
2022-10-18T03:16:38.312Z,15.82
2022-10-18T03:19:10.420Z,16.73
2022-10-18T03:21:39.979Z,12.65
2022-10-18T03:24:09.777Z,16.30
2022-10-18T03:26:39.362Z,15.80
2022-10-18T03:29:09.027Z,11.50
2022-10-18T03:31:38.987Z,15.63
2022-10-18T03:34:11.213Z,16.67
2022-10-18T03:36:41.559Z,16.58
2022-10-18T03:39:11.087Z,14.70
2022-10-18T03:41:40.616Z,16.35
2022-10-18T03:44:10.296Z,13.20
2022-10-18T03:46:39.933Z,18.60
2022-10-18T03:49:12.047Z,17.00
2022-10-18T03:51:41.624Z,13.27
2022-10-18T03:54:11.132Z,13.02
2022-10-18T03:56:40.699Z,19.17
2022-10-18T03:59:10.283Z,15.43
2022-10-18T04:01:39.837Z,17.58
2022-10-18T04:04:12.038Z,14.30
2022-10-18T04:06:41.612Z,14.43
2022-10-18T04:09:11.170Z,17.27
2022-10-18T04:11:40.761Z,14.05
2022-10-18T04:14:10.308Z,15.80
2022-10-18T04:16:39.913Z,15.60
2022-10-18T04:19:12.078Z,14.07
2022-10-18T04:21:41.803Z,16.25
2022-10-18T04:24:11.332Z,16.85
2022-10-18T04:26:40.939Z,18.52
2022-10-18T04:29:10.609Z,12.43
2022-10-18T04:31:40.227Z,15.93
2022-10-18T04:34:12.497Z,15.93
2022-10-18T04:36:42.045Z,16.98
2022-10-18T04:39:11.574Z,15.77
2022-10-18T04:41:41.218Z,13.73
2022-10-18T04:44:10.901Z,19.92
2022-10-18T04:46:40.437Z,15.10
2022-10-18T04:49:12.577Z,16.08
2022-10-18T04:51:42.269Z,12.63
2022-10-18T04:54:11.831Z,16.10
2022-10-18T04:56:41.547Z,17.90
2022-10-18T04:59:11.124Z,22.13
2022-10-18T05:01:40.754Z,16.20
2022-10-18T05:04:12.933Z,16.58
2022-10-18T05:06:42.511Z,21.67
2022-10-18T05:09:12.045Z,18.02
2022-10-18T05:11:41.835Z,19.17
2022-10-18T05:14:11.857Z,15.50
2022-10-18T05:16:41.403Z,15.15
2022-10-18T05:19:13.583Z,14.27
2022-10-18T05:21:43.146Z,15.95
2022-10-18T05:24:14.391Z,18.42
2022-10-18T05:26:43.999Z,13.80
2022-10-18T05:29:13.676Z,14.95
2022-10-18T05:31:43.317Z,15.35
2022-10-18T05:34:15.440Z,18.48
2022-10-18T05:36:45.115Z,16.70
2022-10-18T05:39:14.768Z,15.77
2022-10-18T05:41:44.286Z,16.60
2022-10-18T05:44:13.832Z,15.10
2022-10-18T05:46:43.450Z,12.30
2022-10-18T05:49:16.028Z,16.00
2022-10-18T05:51:45.797Z,15.90
2022-10-18T05:54:15.661Z,20.75
2022-10-18T05:56:45.340Z,18.83
2022-10-18T05:59:14.920Z,18.95
2022-10-18T06:01:45.610Z,15.90
2022-10-18T06:04:17.970Z,18.27
2022-10-18T06:06:47.596Z,26.63
2022-10-18T06:09:17.178Z,18.38
2022-10-18T06:11:46.906Z,25.20
2022-10-18T06:14:16.484Z,33.13
2022-10-18T06:16:46.048Z,32.03
2022-10-18T06:19:18.181Z,37.55
2022-10-18T06:21:47.711Z,33.15
2022-10-18T06:24:18.393Z,34.00
2022-10-18T06:26:47.944Z,42.20
2022-10-18T06:29:17.685Z,44.20
2022-10-18T06:31:47.224Z,46.72
2022-10-18T06:34:19.351Z,35.25
2022-10-18T06:36:48.873Z,38.10
2022-10-18T06:39:18.373Z,35.30
2022-10-18T06:41:47.914Z,40.90
2022-10-18T06:44:22.267Z,39.90
2022-10-18T06:46:53.511Z,37.33
2022-10-18T06:49:25.669Z,38.80
2022-10-18T06:51:56.712Z,37.78
2022-10-18T06:54:26.245Z,41.05
2022-10-18T06:56:58.686Z,45.17
2022-10-18T06:59:31.157Z,38.27
2022-10-18T07:02:01.257Z,45.33
2022-10-18T07:04:33.857Z,39.72
2022-10-18T07:07:03.522Z,44.05
2022-10-18T07:09:33.468Z,40.90
2022-10-18T07:12:03.048Z,40.13
2022-10-18T07:14:32.587Z,41.42
2022-10-18T07:17:02.775Z,39.08
2022-10-18T07:19:35.031Z,44.92
2022-10-18T07:22:04.697Z,51.58
2022-10-18T07:24:34.353Z,38.30
2022-10-18T07:27:03.862Z,47.10
2022-10-18T07:29:33.426Z,54.25
2022-10-18T07:32:02.956Z,54.50
2022-10-18T07:34:35.172Z,48.83
2022-10-18T07:37:04.805Z,45.55
2022-10-18T07:39:34.378Z,52.00
2022-10-18T07:42:03.926Z,58.20
2022-10-18T07:44:33.472Z,68.25
2022-10-18T07:47:03.037Z,62.53
2022-10-18T07:49:35.176Z,58.95
2022-10-18T07:52:04.813Z,60.97
2022-10-18T07:54:34.327Z,67.65
2022-10-18T07:57:03.933Z,71.27
2022-10-18T07:59:33.601Z,75.68
2022-10-18T08:02:03.256Z,82.20
2022-10-18T08:04:35.453Z,74.67
2022-10-18T08:07:05.419Z,77.18
2022-10-18T08:09:34.994Z,71.53
2022-10-18T08:12:04.614Z,67.45
2022-10-18T08:14:34.305Z,74.35
2022-10-18T08:17:03.920Z,76.00
2022-10-18T08:19:36.161Z,73.60
2022-10-18T08:22:05.742Z,88.00
2022-10-18T08:24:35.279Z,74.53
2022-10-18T08:27:04.891Z,79.30
2022-10-18T08:29:34.473Z,77.07
2022-10-18T08:32:04.111Z,75.10
2022-10-18T08:34:36.442Z,70.70
2022-10-18T08:37:06.048Z,68.18
2022-10-18T08:39:35.571Z,59.05
2022-10-18T08:42:26.639Z,57.67
2022-10-18T08:44:56.820Z,51.80
2022-10-18T08:47:37.579Z,53.15
2022-10-18T08:50:14.888Z,50.58
2022-10-18T08:52:48.459Z,67.28
2022-10-18T08:55:23.635Z,54.75
2022-10-18T08:57:54.625Z,65.47
2022-10-18T09:00:25.941Z,67.00
2022-10-18T09:03:16.477Z,75.47
2022-10-18T09:05:52.577Z,86.53
2022-10-18T09:08:40.888Z,72.05
2022-10-18T09:11:22.743Z,69.72
2022-10-18T09:14:20.380Z,96.95
2022-10-18T09:16:55.544Z,84.47
2022-10-18T09:19:33.885Z,84.78
2022-10-18T09:22:10.230Z,82.90
2022-10-18T09:24:42.453Z,84.30
2022-10-18T09:27:18.256Z,105.88
2022-10-18T09:29:57.239Z,107.13
2022-10-18T09:32:33.526Z,106.00
2022-10-18T09:35:07.580Z,92.50
2022-10-18T09:37:39.765Z,112.70
2022-10-18T09:40:19.045Z,112.60
2022-10-18T09:42:55.723Z,130.38
2022-10-18T09:45:29.320Z,151.87
2022-10-18T09:48:06.460Z,154.95
2022-10-18T09:50:40.245Z,197.67
2022-10-18T09:53:18.121Z,215.68
2022-10-18T09:55:56.942Z,239.40
2022-10-18T09:58:27.169Z,239.85
2022-10-18T10:00:58.185Z,235.45
2022-10-18T10:03:28.296Z,266.03
2022-10-18T10:06:06.320Z,237.10
2022-10-18T10:08:38.603Z,257.10
2022-10-18T10:11:08.151Z,240.88
2022-10-18T10:13:37.873Z,256.38
2022-10-18T10:16:08.006Z,242.67
2022-10-18T10:18:39.532Z,227.82
2022-10-18T10:21:10.777Z,219.70
2022-10-18T10:23:50.039Z,220.30
2022-10-18T10:26:25.719Z,246.93
2022-10-18T10:28:55.347Z,194.98
2022-10-18T10:31:30.333Z,200.90
2022-10-18T10:34:04.632Z,202.00
2022-10-18T10:36:36.190Z,203.67
2022-10-18T10:39:12.563Z,152.13
2022-10-18T10:41:43.397Z,115.53
2022-10-18T10:44:18.769Z,113.60
2022-10-18T10:46:48.978Z,113.30
2022-10-18T10:52:28.795Z,133.20
2022-10-18T10:55:34.160Z,128.65
2022-10-18T10:57:53.744Z,125.63
2022-10-18T11:00:39.655Z,134.43
2022-10-18T11:03:28.077Z,131.73
2022-10-18T11:06:00.973Z,122.03
2022-10-18T11:08:34.638Z,97.45
2022-10-18T11:11:19.263Z,109.88
2022-10-18T11:14:13.293Z,100.45
2022-10-18T11:16:54.468Z,101.00
2022-10-18T11:19:35.635Z,84.13
2022-10-18T11:22:07.544Z,78.75
2022-10-18T11:24:39.215Z,70.80
2022-10-18T11:27:14.512Z,69.18
2022-10-18T11:29:51.734Z,62.50
2022-10-18T11:32:25.905Z,65.47
2022-10-18T11:35:10.163Z,61.88
2022-10-18T11:37:49.988Z,62.65
2022-10-18T11:40:33.304Z,60.97
2022-10-18T11:43:10.387Z,58.65
2022-10-18T11:45:45.282Z,52.80
2022-10-18T11:48:28.841Z,47.53
2022-10-18T11:51:03.110Z,44.60
2022-10-18T11:53:39.408Z,42.00
2022-10-18T11:56:15.685Z,46.72
2022-10-18T11:58:54.441Z,41.70
2022-10-18T12:01:30.650Z,46.77
2022-10-18T12:04:05.890Z,41.00
2022-10-18T12:06:39.553Z,41.58
2022-10-18T12:09:16.396Z,40.53
2022-10-18T12:11:52.294Z,42.13
2022-10-18T12:14:32.224Z,48.92
2022-10-18T12:17:39.743Z,44.75
2022-10-18T12:19:56.243Z,34.55
2022-10-18T12:22:29.120Z,42.17
2022-10-18T12:24:58.815Z,42.30
2022-10-18T12:27:36.472Z,46.03
2022-10-18T12:30:14.053Z,47.88
2022-10-18T12:32:56.520Z,46.08
2022-10-18T12:35:35.403Z,52.83
2022-10-18T12:38:19.294Z,45.40
2022-10-18T12:40:51.199Z,42.92
2022-10-18T12:43:22.066Z,44.55
2022-10-18T12:45:56.797Z,38.83
2022-10-18T12:48:32.781Z,41.10
2022-10-18T12:51:08.112Z,38.85
2022-10-18T12:53:38.392Z,42.25
2022-10-18T12:56:41.745Z,37.85
2022-10-18T12:59:56.078Z,38.30
2022-10-18T13:02:30.829Z,25.30
2022-10-18T13:05:48.781Z,29.45
2022-10-18T13:08:40.696Z,26.80
2022-10-18T13:11:40.413Z,31.63
2022-10-18T13:14:22.789Z,34.13
2022-10-18T13:16:55.598Z,33.38
2022-10-18T13:19:34.592Z,31.80
2022-10-18T13:22:18.976Z,44.60
2022-10-18T13:24:56.557Z,33.53
2022-10-18T13:27:36.639Z,35.65
2022-10-18T13:30:33.247Z,36.58
2022-10-18T13:33:17.092Z,32.33
2022-10-18T13:35:57.457Z,30.10
2022-10-18T13:38:47.138Z,28.47
2022-10-18T13:41:19.452Z,31.92
2022-10-18T13:44:25.593Z,29.80
2022-10-18T13:47:36.993Z,32.45
2022-10-18T13:50:29.461Z,30.77
2022-10-18T13:53:35.152Z,25.73
2022-10-18T13:56:21.472Z,30.10
2022-10-18T13:59:13.410Z,34.08
2022-10-18T14:01:53.443Z,26.65
2022-10-18T14:04:49.985Z,27.03
2022-10-18T14:07:21.120Z,26.10
2022-10-18T14:09:57.597Z,31.75
2022-10-18T14:12:35.397Z,29.98
2022-10-18T14:15:08.731Z,28.52
2022-10-18T14:17:43.033Z,31.55
2022-10-18T14:20:29.548Z,17.30
2022-10-18T14:23:05.532Z,15.05
2022-10-18T14:25:39.556Z,13.05
2022-10-18T14:28:12.747Z,11.88
2022-10-18T14:30:54.898Z,15.55
2022-10-18T14:33:33.384Z,11.43
2022-10-18T14:36:06.202Z,14.80
2022-10-18T14:38:38.139Z,13.55
2022-10-18T14:41:17.792Z,10.43
2022-10-18T14:43:48.230Z,13.85
2022-10-18T14:46:24.183Z,14.98
2022-10-18T14:48:58.514Z,10.82
2022-10-18T14:51:28.307Z,13.98
2022-10-18T14:53:58.238Z,10.82
2022-10-18T14:56:33.235Z,16.02
2022-10-18T14:59:04.705Z,15.10
2022-10-18T15:01:36.403Z,13.85
2022-10-18T15:04:09.706Z,11.35
2022-10-18T15:06:39.285Z,12.93
2022-10-18T15:09:09.390Z,13.40
2022-10-18T15:11:41.895Z,12.48
2022-10-18T15:14:17.315Z,11.77
2022-10-18T15:16:48.148Z,10.07
2022-10-18T15:19:33.071Z,9.70
2022-10-18T15:22:31.304Z,10.50
2022-10-18T15:25:17.387Z,10.07
2022-10-18T15:27:51.389Z,10.98
2022-10-18T15:30:28.157Z,11.05
2022-10-18T15:32:59.368Z,12.23
2022-10-18T15:35:31.581Z,13.02
2022-10-18T15:38:03.584Z,17.17
2022-10-18T15:40:39.361Z,12.25
2022-10-18T15:43:39.500Z,12.80
2022-10-18T15:46:09.459Z,10.80
2022-10-18T15:48:40.258Z,11.85
2022-10-18T15:51:11.328Z,7.60
2022-10-18T15:53:46.517Z,10.98
2022-10-18T15:56:29.635Z,8.73
2022-10-18T15:59:04.028Z,11.77
2022-10-18T16:01:39.950Z,10.40
2022-10-18T16:04:13.985Z,9.85
2022-10-18T16:06:43.683Z,13.40
2022-10-18T16:09:16.197Z,16.05
2022-10-18T16:11:47.012Z,12.30
2022-10-18T16:14:19.153Z,9.90
2022-10-18T16:16:49.282Z,9.27
2022-10-18T16:19:21.288Z,10.27
2022-10-18T16:21:51.261Z,11.02
2022-10-18T16:24:21.161Z,10.38
2022-10-18T16:26:51.243Z,8.80
2022-10-18T16:29:26.845Z,15.83
2022-10-18T16:31:58.263Z,10.05
2022-10-18T16:34:28.277Z,18.80
2022-10-18T16:36:58.383Z,19.00
2022-10-18T16:39:28.499Z,8.55
2022-10-18T16:41:58.045Z,13.23
2022-10-18T16:44:30.338Z,14.57
2022-10-18T16:46:59.930Z,13.35
2022-10-18T16:49:29.465Z,13.00
2022-10-18T16:51:59.642Z,12.88
2022-10-18T16:54:29.168Z,11.43
2022-10-18T16:56:58.724Z,13.93
2022-10-18T16:59:32.186Z,15.65
2022-10-18T17:02:05.567Z,21.30
2022-10-18T17:04:35.253Z,22.65
2022-10-18T17:07:05.965Z,14.77
2022-10-18T17:09:36.957Z,13.88
2022-10-18T17:12:07.116Z,16.65
2022-10-18T17:14:39.239Z,15.93
2022-10-18T17:17:08.806Z,15.18
2022-10-18T17:19:38.362Z,10.87
2022-10-18T17:22:07.966Z,14.52
2022-10-18T17:24:37.604Z,16.73
2022-10-18T17:27:07.269Z,15.77
2022-10-18T17:29:40.980Z,11.25
2022-10-18T17:32:10.663Z,28.70
2022-10-18T17:37:11.026Z,19.27
2022-10-18T17:39:40.643Z,14.30
2022-10-18T17:42:10.197Z,14.73
2022-10-18T17:44:43.256Z,17.23
2022-10-18T17:47:12.815Z,11.27
2022-10-18T17:49:44.334Z,11.57
2022-10-18T17:52:14.431Z,14.82
2022-10-18T17:54:44.019Z,15.93
2022-10-18T17:57:13.601Z,17.08
2022-10-18T17:59:45.852Z,12.27
2022-10-18T18:02:15.412Z,16.08
2022-10-18T18:04:45.183Z,18.80
2022-10-18T18:07:14.968Z,20.27
2022-10-18T18:09:44.697Z,13.15
2022-10-18T18:12:14.256Z,17.25
2022-10-18T18:14:46.409Z,14.02
2022-10-18T18:17:24.667Z,21.77
2022-10-18T18:20:03.323Z,12.57
2022-10-18T18:22:33.323Z,17.40
2022-10-18T18:25:03.426Z,13.52
2022-10-18T18:27:32.942Z,14.18
2022-10-18T18:30:05.059Z,21.83
2022-10-18T18:32:35.900Z,13.20
2022-10-18T18:35:05.485Z,21.17
2022-10-18T18:37:35.085Z,14.48
2022-10-18T18:40:04.613Z,13.55
2022-10-18T18:42:35.197Z,9.05
2022-10-18T18:45:08.420Z,19.75
2022-10-18T18:47:37.942Z,14.07
2022-10-18T18:50:08.051Z,13.70
2022-10-18T18:52:37.630Z,18.92
2022-10-18T18:55:08.232Z,10.30
2022-10-18T18:57:37.765Z,14.95
2022-10-18T19:00:13.296Z,17.20
2022-10-18T19:02:42.926Z,17.98
2022-10-18T19:05:12.566Z,17.05
2022-10-18T19:07:42.473Z,14.20
2022-10-18T19:10:13.403Z,11.85
2022-10-18T19:12:42.986Z,16.42
2022-10-18T19:15:15.826Z,20.75
2022-10-18T19:17:46.182Z,16.98
2022-10-18T19:20:18.104Z,13.98
2022-10-18T19:22:49.046Z,13.73
2022-10-18T19:25:21.178Z,19.80
2022-10-18T19:27:53.293Z,15.55
2022-10-18T19:30:25.687Z,11.77
2022-10-18T19:33:01.168Z,12.32
2022-10-18T19:35:33.355Z,12.57
2022-10-18T19:38:03.085Z,17.20
2022-10-18T19:40:33.278Z,15.57
2022-10-18T19:43:02.892Z,20.48
2022-10-18T19:45:35.687Z,15.57
2022-10-18T19:48:05.467Z,12.05
2022-10-18T19:50:35.820Z,22.10
2022-10-18T19:53:05.495Z,16.83
2022-10-18T19:55:36.711Z,15.60
2022-10-18T19:58:08.029Z,18.67
2022-10-18T20:00:41.211Z,17.30
2022-10-18T20:03:11.535Z,12.27
2022-10-18T20:05:42.424Z,24.10
2022-10-18T20:08:13.978Z,18.30
2022-10-18T20:10:44.762Z,16.48
2022-10-18T20:13:14.464Z,16.63
2022-10-18T20:15:46.626Z,14.25
2022-10-18T20:18:16.224Z,14.65
2022-10-18T20:20:48.074Z,18.70
2022-10-18T20:23:18.317Z,17.92
2022-10-18T20:25:58.308Z,18.48
2022-10-18T20:28:28.199Z,19.17
2022-10-18T20:31:09.730Z,10.40
2022-10-18T20:33:40.608Z,16.08
2022-10-18T20:36:12.739Z,18.52
2022-10-18T20:38:44.365Z,14.93
2022-10-18T20:41:15.857Z,15.95
2022-10-18T20:43:46.091Z,14.68
2022-10-18T20:46:18.361Z,17.38
2022-10-18T20:48:47.927Z,19.08
2022-10-18T20:51:17.483Z,15.25
2022-10-18T20:53:47.452Z,16.40
2022-10-18T20:56:20.112Z,17.60
2022-10-18T20:58:51.383Z,21.17
2022-10-18T21:01:24.887Z,12.05
2022-10-18T21:03:56.328Z,20.45
2022-10-18T21:06:27.114Z,14.98
2022-10-18T21:08:58.089Z,13.48
2022-10-18T21:11:32.820Z,11.98
2022-10-18T21:14:03.638Z,13.30
2022-10-18T21:16:37.280Z,12.55
2022-10-18T21:19:07.089Z,18.95
2022-10-18T21:21:36.900Z,14.10
2022-10-18T21:24:07.815Z,18.60
2022-10-18T21:26:38.446Z,14.43
2022-10-18T21:29:08.710Z,15.98
2022-10-18T21:31:42.907Z,15.98
2022-10-18T21:34:15.700Z,13.95
2022-10-18T21:36:47.121Z,14.15
2022-10-18T21:39:18.596Z,16.63
2022-10-18T21:41:48.735Z,12.43
2022-10-18T21:44:19.589Z,17.88
2022-10-18T21:46:51.924Z,22.48
2022-10-18T21:49:24.842Z,14.25
2022-10-18T21:51:54.356Z,18.60
2022-10-18T21:58:08.936Z,14.68
2022-10-18T22:00:38.567Z,14.05
2022-10-18T22:03:15.943Z,17.42
2022-10-18T22:09:30.555Z,12.45
2022-10-18T22:12:00.190Z,10.33
2022-10-18T22:14:29.925Z,16.63
2022-10-18T22:16:59.438Z,13.23
2022-10-18T22:19:31.732Z,8.63
2022-10-18T22:22:01.266Z,14.82
2022-10-18T22:24:30.840Z,17.77
2022-10-18T22:27:00.404Z,13.13
2022-10-18T22:29:30.041Z,14.63
2022-10-18T22:32:01.735Z,17.10
2022-10-18T22:34:33.837Z,15.00
2022-10-18T22:37:03.408Z,13.07
2022-10-18T22:39:33.063Z,13.55
2022-10-18T22:42:02.622Z,19.35
2022-10-18T22:44:32.173Z,13.10
2022-10-18T22:47:01.707Z,13.68
2022-10-18T22:49:33.838Z,12.50
2022-10-18T22:52:03.497Z,15.25
2022-10-18T22:54:33.037Z,14.15
2022-10-18T22:57:02.641Z,19.47
2022-10-18T22:59:32.184Z,12.32
2022-10-18T23:02:01.781Z,18.27
2022-10-18T23:04:34.074Z,19.95
2022-10-18T23:07:03.635Z,13.98
2022-10-18T23:09:33.380Z,12.50
2022-10-18T23:12:06.319Z,16.38
2022-10-18T23:14:35.871Z,15.45
2022-10-18T23:17:05.429Z,13.60
2022-10-18T23:19:37.572Z,15.70
2022-10-18T23:22:07.316Z,12.93
2022-10-18T23:24:37.028Z,17.40
2022-10-18T23:27:06.813Z,15.05
2022-10-18T23:29:36.497Z,19.05
2022-10-18T23:32:06.126Z,17.20
2022-10-18T23:34:38.295Z,12.20
2022-10-18T23:37:07.871Z,12.15
2022-10-18T23:39:37.397Z,12.57
2022-10-18T23:42:07.172Z,13.43
2022-10-18T23:44:36.713Z,10.90
2022-10-18T23:47:06.385Z,16.63
2022-10-18T23:49:38.552Z,19.58
2022-10-18T23:52:08.377Z,10.88
2022-10-18T23:54:38.108Z,13.93
2022-10-18T23:57:07.682Z,14.88
2022-10-18T23:59:37.261Z,17.25
